Time;durP1;ratioP1;P1;durP2;ratioP2;P2;SDS_P1;SDS_P2;PMS_P1;PMS_P2;Temp;Humidity;BMP_temperature;BMP_pressure;BME280_temperature;BME280_humidity;BME280_pressure;Samples;Min_cycle;Max_cycle;Signal;HPM_P1;HPM_P2
2022/05/28 00:00:51;;;;;;;;;;;;;;;12.44;97.67;102172.88;4993346;28;19922;-29
2022/05/28 00:03:19;;;;;;;;;;;;;;;12.44;98.26;102170.06;4994113;28;19930;-29
2022/05/28 00:05:47;;;;;;;;;;;;;;;12.45;99.27;102170.91;4993376;28;19922;-30
2022/05/28 00:08:15;;;;;;;;;;;;;;;12.47;99.65;102177.06;4992759;28;20383;-30
2022/05/28 00:10:44;;;;;;;;;;;;;;;12.48;99.92;102174.00;4992663;28;19929;-30
2022/05/28 00:13:13;;;;;;;;;;;;;;;12.47;99.83;102165.88;4992096;28;19921;-30
2022/05/28 00:15:41;;;;;;;;;;;;;;;12.46;99.47;102176.22;4992422;28;20268;-29
2022/05/28 00:18:09;;;;;;;;;;;;;;;12.46;100.00;102162.22;4992155;28;19992;-29
2022/05/28 00:20:37;;;;;;;;;;;;;;;12.47;100.00;102168.66;4991831;28;19929;-31
2022/05/28 00:23:05;;;;;;;;;;;;;;;12.46;100.00;102161.38;4992597;28;19941;-28
2022/05/28 00:25:32;;;;;;;;;;;;;;;12.45;100.00;102166.13;4993610;28;19921;-29
2022/05/28 00:28:00;;;;;;;;;;;;;;;12.44;100.00;102170.06;4993057;28;19922;-29
2022/05/28 00:30:31;;;;;;;;;;;;;;;12.43;100.00;102166.41;4990570;28;19922;-28
2022/05/28 00:32:59;;;;;;;;;;;;;;;12.45;100.00;102173.69;4993503;28;20422;-29
2022/05/28 00:35:26;;;;;;;;;;;;;;;12.42;100.00;102180.69;4993144;28;19922;-30
2022/05/28 00:37:54;;;;;;;;;;;;;;;12.39;100.00;102170.88;4993289;28;19929;-29
2022/05/28 00:40:23;;;;;;;;;;;;;;;12.35;100.00;102166.16;4993490;28;19933;-28
2022/05/28 00:42:50;;;;;;;;;;;;;;;12.32;100.00;102173.16;4992704;28;19929;-31
2022/05/28 00:45:18;;;;;;;;;;;;;;;12.31;100.00;102176.22;4993436;28;19984;-29
2022/05/28 00:47:48;;;;;;;;;;;;;;;12.31;100.00;102173.44;4993245;28;20314;-29
2022/05/28 00:50:17;;;;;;;;;;;;;;;12.28;100.00;102179.56;4992623;28;19929;-32
2022/05/28 00:52:45;;;;;;;;;;;;;;;12.26;100.00;102179.00;4993119;28;19922;-31
2022/05/28 00:55:13;;;;;;;;;;;;;;;12.23;100.00;102177.59;4992353;28;19922;-30
2022/05/28 00:57:41;;;;;;;;;;;;;;;12.18;100.00;102176.78;4993230;28;20295;-30
2022/05/28 01:00:10;;;;;;;;;;;;;;;12.17;100.00;102169.50;4993099;28;20359;-30
2022/05/28 01:02:43;;;;;;;;;;;;;;;12.18;100.00;102174.81;4992598;28;20315;-30
2022/05/28 01:05:20;;;;;;;;;;;;;;;12.16;100.00;102170.63;4992999;28;19922;-29
2022/05/28 01:07:53;;;;;;;;;;;;;;;12.11;99.19;102170.59;4992931;28;19922;-32
2022/05/28 01:10:25;;;;;;;;;;;;;;;12.08;98.57;102170.03;4992296;28;19933;-32
2022/05/28 01:12:57;;;;;;;;;;;;;;;12.06;97.68;102163.03;4992801;28;19922;-30
2022/05/28 01:15:27;;;;;;;;;;;;;;;12.04;97.89;102165.28;4992695;28;19926;-30
2022/05/28 01:17:59;;;;;;;;;;;;;;;12.04;99.42;102168.06;4992095;28;19921;-30
2022/05/28 01:20:32;;;;;;;;;;;;;;;12.03;99.64;102166.38;4992974;28;19928;-36
2022/05/28 01:23:14;;;;;;;;;;;;;;;12.02;99.87;102170.28;4992731;28;19921;-35
2022/05/28 01:25:49;;;;;;;;;;;;;;;12.00;99.75;102162.19;4991827;28;19948;-37
2022/05/28 01:28:20;;;;;;;;;;;;;;;11.96;100.00;102180.66;4992717;28;19930;-30
2022/05/28 01:30:49;;;;;;;;;;;;;;;11.95;100.00;102175.34;4991852;28;19921;-29
2022/05/28 01:33:17;;;;;;;;;;;;;;;11.94;100.00;102174.50;4992539;28;19933;-30
2022/05/28 01:35:46;;;;;;;;;;;;;;;11.93;100.00;102170.00;4992412;28;20008;-30
2022/05/28 01:38:14;;;;;;;;;;;;;;;11.92;100.00;102173.94;4981501;28;19929;-29
2022/05/28 01:40:42;;;;;;;;;;;;;;;11.90;100.00;102178.97;4992620;28;19928;-31
2022/05/28 01:43:11;;;;;;;;;;;;;;;11.87;100.00;102173.91;4992442;28;19922;-32
2022/05/28 01:45:42;;;;;;;;;;;;;;;11.84;100.00;102177.25;4988321;28;19976;-29
2022/05/28 01:48:09;;;;;;;;;;;;;;;11.82;100.00;102176.69;4992388;28;19928;-32
2022/05/28 01:50:39;;;;;;;;;;;;;;;11.78;98.98;102175.59;4991942;28;19948;-31
2022/05/28 01:53:09;;;;;;;;;;;;;;;11.75;98.90;102181.69;4991571;28;19926;-29
2022/05/28 01:55:40;;;;;;;;;;;;;;;11.71;98.74;102172.16;4992101;28;19928;-30
2022/05/28 01:58:07;;;;;;;;;;;;;;;11.66;98.44;102172.13;4992321;28;19944;-32
2022/05/28 02:00:35;;;;;;;;;;;;;;;11.63;97.97;102167.09;4991217;28;19921;-34
2022/05/28 02:03:04;;;;;;;;;;;;;;;11.62;97.39;102176.59;4991893;28;19922;-29
2022/05/28 02:05:32;;;;;;;;;;;;;;;11.61;98.25;102167.34;4991122;28;19928;-30
2022/05/28 02:07:59;;;;;;;;;;;;;;;11.60;98.58;102171.25;4991954;28;19929;-30
2022/05/28 02:10:27;;;;;;;;;;;;;;;11.60;98.78;102162.03;4991969;28;20397;-31
2022/05/28 02:13:05;;;;;;;;;;;;;;;11.59;98.75;102168.78;4991187;28;19922;-29
2022/05/28 02:15:38;;;;;;;;;;;;;;;11.57;98.60;102163.47;4992093;28;19922;-29
2022/05/28 02:18:11;;;;;;;;;;;;;;;11.58;98.31;102178.28;4991616;28;20126;-29
2022/05/28 02:20:45;;;;;;;;;;;;;;;11.57;99.04;102179.38;4991221;28;19928;-29
2022/05/28 02:23:21;;;;;;;;;;;;;;;11.57;99.55;102176.59;4991746;28;20422;-30
2022/05/28 02:25:52;;;;;;;;;;;;;;;11.56;99.70;102172.13;4991472;28;19929;-31
2022/05/28 02:28:23;;;;;;;;;;;;;;;11.52;99.65;102168.19;4991123;28;19937;-31
2022/05/28 02:30:51;;;;;;;;;;;;;;;11.51;99.40;102169.28;4991766;28;19958;-29
2022/05/28 02:33:21;;;;;;;;;;;;;;;11.50;100.00;102168.44;4991751;28;20017;-30
2022/05/28 02:35:49;;;;;;;;;;;;;;;11.51;100.00;102166.50;4990872;28;19932;-31
2022/05/28 02:38:17;;;;;;;;;;;;;;;11.51;100.00;102164.53;4991480;28;19922;-29
2022/05/28 02:40:44;;;;;;;;;;;;;;;11.48;100.00;102164.25;4991202;28;19962;-30
2022/05/28 02:43:12;;;;;;;;;;;;;;;11.42;100.00;102155.00;4991932;28;19928;-30
2022/05/28 02:45:40;;;;;;;;;;;;;;;11.41;99.63;102164.47;4991650;28;19971;-30
2022/05/28 02:48:08;;;;;;;;;;;;;;;11.38;99.73;102163.09;4980030;28;19926;-30
2022/05/28 02:50:37;;;;;;;;;;;;;;;11.41;100.00;102164.47;4980730;28;20614;-29
2022/05/28 02:53:05;;;;;;;;;;;;;;;11.42;100.00;102166.16;4991351;28;19929;-30
2022/05/28 02:55:32;;;;;;;;;;;;;;;11.44;100.00;102171.50;4990972;28;19926;-29
2022/05/28 02:58:00;;;;;;;;;;;;;;;11.44;100.00;102172.31;4991437;28;20399;-29
2022/05/28 03:00:27;;;;;;;;;;;;;;;11.35;98.56;102169.22;4991550;28;19925;-31
2022/05/28 03:02:55;;;;;;;;;;;;;;;11.28;96.86;102171.41;4990603;28;19929;-29
2022/05/28 03:05:24;;;;;;;;;;;;;;;11.24;95.80;102183.41;4991116;28;20306;-29
2022/05/28 03:07:53;;;;;;;;;;;;;;;11.19;94.95;102181.41;4991326;28;19922;-29
2022/05/28 03:10:20;;;;;;;;;;;;;;;11.14;93.32;102178.63;4990593;28;19944;-29
2022/05/28 03:12:48;;;;;;;;;;;;;;;11.13;93.79;102181.69;4991141;28;19925;-29
2022/05/28 03:15:16;;;;;;;;;;;;;;;11.13;94.44;102184.47;4991180;28;20430;-30
2022/05/28 03:17:43;;;;;;;;;;;;;;;11.11;94.56;102183.91;4990382;28;19929;-30
2022/05/28 03:20:11;;;;;;;;;;;;;;;11.08;93.89;102182.50;4994741;28;19925;-30
2022/05/28 03:22:38;;;;;;;;;;;;;;;11.07;94.04;102175.22;4994809;28;19922;-34
2022/05/28 03:25:08;;;;;;;;;;;;;;;11.07;93.82;102191.97;4994045;28;19928;-31
2022/05/28 03:27:35;;;;;;;;;;;;;;;11.04;94.07;102186.94;4994761;28;19921;-29
2022/05/28 03:30:04;;;;;;;;;;;;;;;11.04;93.79;102186.94;4993986;28;19929;-31
2022/05/28 03:32:31;;;;;;;;;;;;;;;11.03;94.33;102191.66;4994600;28;20290;-30
2022/05/28 03:34:59;;;;;;;;;;;;;;;11.03;95.05;102190.84;4994483;28;20366;-29
2022/05/28 03:37:26;;;;;;;;;;;;;;;11.02;95.01;102192.78;4993377;28;19927;-30
2022/05/28 03:39:54;;;;;;;;;;;;;;;11.01;94.55;102198.63;4993069;28;19922;-29
2022/05/28 03:42:23;;;;;;;;;;;;;;;10.99;94.56;102195.28;4993153;28;19921;-29
2022/05/28 03:44:50;;;;;;;;;;;;;;;10.98;94.94;102188.88;4993293;28;19936;-29
2022/05/28 03:47:18;;;;;;;;;;;;;;;11.00;95.37;102189.41;4994094;28;19930;-30
2022/05/28 03:49:46;;;;;;;;;;;;;;;11.00;94.54;102196.94;4994452;28;19921;-28
2022/05/28 03:52:14;;;;;;;;;;;;;;;10.99;93.78;102184.94;4993669;28;20589;-28
2022/05/28 03:54:44;;;;;;;;;;;;;;;11.00;93.26;102194.16;4994348;28;20012;-28
2022/05/28 03:57:14;;;;;;;;;;;;;;;11.02;94.17;102187.19;4993832;28;19921;-29
2022/05/28 03:59:42;;;;;;;;;;;;;;;11.04;94.59;102193.34;4993321;28;19921;-31
2022/05/28 04:02:11;;;;;;;;;;;;;;;11.04;95.02;102190.56;4994296;28;19944;-30
2022/05/28 04:04:39;;;;;;;;;;;;;;;11.04;95.87;102193.34;4994072;28;20343;-29
2022/05/28 04:07:06;;;;;;;;;;;;;;;11.05;96.07;102197.84;4993287;28;19929;-28
2022/05/28 04:09:34;;;;;;;;;;;;;;;11.07;96.18;102191.97;4994015;28;19937;-28
2022/05/28 04:12:01;;;;;;;;;;;;;;;11.10;96.81;102194.25;4993021;28;19929;-29
2022/05/28 04:14:29;;;;;;;;;;;;;;;11.14;97.18;102191.75;4994013;28;19926;-29
2022/05/28 04:16:58;;;;;;;;;;;;;;;11.15;97.45;102199.88;4993761;28;19922;-30
2022/05/28 04:19:26;;;;;;;;;;;;;;;11.16;97.88;102190.38;4993203;28;19929;-30
2022/05/28 04:21:54;;;;;;;;;;;;;;;11.17;98.28;102200.44;4993609;28;19926;-29
2022/05/28 04:24:22;;;;;;;;;;;;;;;11.16;97.30;102203.50;4993670;28;19944;-29
2022/05/28 04:26:49;;;;;;;;;;;;;;;11.14;96.18;102209.34;4992827;28;20374;-29
2022/05/28 04:29:18;;;;;;;;;;;;;;;11.11;95.08;102212.69;4993367;28;19925;-28
2022/05/28 04:31:45;;;;;;;;;;;;;;;11.09;95.48;102214.06;4993640;28;19929;-30
2022/05/28 04:34:14;;;;;;;;;;;;;;;11.07;94.38;102210.69;4992851;28;19929;-31
2022/05/28 04:36:42;;;;;;;;;;;;;;;11.06;94.74;102207.06;4993499;28;20354;-31
2022/05/28 04:39:09;;;;;;;;;;;;;;;11.06;95.10;102215.44;4993126;28;19922;-30
2022/05/28 04:41:37;;;;;;;;;;;;;;;11.09;95.73;102212.09;4992742;28;19936;-29
2022/05/28 04:44:07;;;;;;;;;;;;;;;11.15;96.23;102207.41;4993646;28;19929;-29
2022/05/28 04:46:34;;;;;;;;;;;;;;;11.20;96.84;102208.25;4993390;28;19928;-30
2022/05/28 04:49:02;;;;;;;;;;;;;;;11.27;97.76;102220.03;4992559;28;19922;-29
2022/05/28 04:51:31;;;;;;;;;;;;;;;11.32;97.02;102213.66;4992863;28;19968;-30
2022/05/28 04:53:59;;;;;;;;;;;;;;;11.34;96.66;102215.06;4992742;28;20564;-31
2022/05/28 04:56:27;;;;;;;;;;;;;;;11.39;96.17;102211.44;4991468;28;19921;-30
2022/05/28 04:58:54;;;;;;;;;;;;;;;11.43;95.74;102211.72;4992622;28;19921;-30
2022/05/28 05:01:23;;;;;;;;;;;;;;;11.44;94.87;102213.41;4991514;28;19922;-30
2022/05/28 05:03:51;;;;;;;;;;;;;;;11.46;94.69;102211.19;4992545;28;19961;-32
2022/05/28 05:06:19;;;;;;;;;;;;;;;11.45;94.61;102215.09;4992084;28;19925;-30
2022/05/28 05:08:48;;;;;;;;;;;;;;;11.47;94.34;102224.06;4992042;28;19991;-30
2022/05/28 05:11:16;;;;;;;;;;;;;;;11.46;93.90;102220.41;4992759;28;19953;-31
2022/05/28 05:13:44;;;;;;;;;;;;;;;11.48;93.40;102228.53;4992529;28;19921;-33
2022/05/28 05:16:12;;;;;;;;;;;;;;;11.49;93.24;102227.41;4991636;28;19936;-35
2022/05/28 05:18:41;;;;;;;;;;;;;;;11.49;92.85;102225.47;4990512;28;19929;-30
2022/05/28 05:21:11;;;;;;;;;;;;;;;11.55;93.74;102231.94;4991275;28;20416;-31
2022/05/28 05:23:39;;;;;;;;;;;;;;;11.62;93.91;102226.91;4990850;28;20027;-30
2022/05/28 05:26:13;;;;;;;;;;;;;;;11.66;93.56;102233.66;4991402;28;19932;-28
2022/05/28 05:28:42;;;;;;;;;;;;;;;11.68;92.80;102231.44;4991099;28;19929;-29
2022/05/28 05:31:11;;;;;;;;;;;;;;;11.72;92.35;102235.38;4989224;28;19941;-30
2022/05/28 05:33:39;;;;;;;;;;;;;;;11.74;92.50;102231.19;4980294;28;19959;-29
2022/05/28 05:36:07;;;;;;;;;;;;;;;11.76;91.26;102233.75;4991285;28;20020;-30
2022/05/28 05:38:34;;;;;;;;;;;;;;;11.78;90.87;102234.31;4990272;28;20371;-31
2022/05/28 05:41:02;;;;;;;;;;;;;;;11.80;90.42;102239.59;4990631;28;19932;-28
2022/05/28 05:43:31;;;;;;;;;;;;;;;11.82;90.32;102243.81;4990293;28;19930;-28
2022/05/28 05:46:00;;;;;;;;;;;;;;;11.82;89.83;102238.22;4991018;28;19929;-29
2022/05/28 05:48:29;;;;;;;;;;;;;;;11.83;90.26;102244.66;4991312;28;19933;-29
2022/05/28 05:50:57;;;;;;;;;;;;;;;11.86;90.67;102244.94;4989536;28;19926;-28
2022/05/28 05:53:25;;;;;;;;;;;;;;;11.90;91.38;102246.09;4990828;28;19953;-29
2022/05/28 05:55:52;;;;;;;;;;;;;;;11.94;91.95;102240.78;4991140;28;19921;-28
2022/05/28 05:58:20;;;;;;;;;;;;;;;11.95;91.72;102245.28;4990108;28;19925;-29
2022/05/28 06:00:48;;;;;;;;;;;;;;;11.96;90.63;102256.19;4991158;28;20287;-29
2022/05/28 06:03:16;;;;;;;;;;;;;;;12.03;91.44;102251.16;4990948;28;19926;-29
2022/05/28 06:05:44;;;;;;;;;;;;;;;12.14;91.30;102263.25;4989910;28;20012;-35
2022/05/28 06:08:12;;;;;;;;;;;;;;;12.17;90.07;102259.91;4990850;28;19926;-33
2022/05/28 06:10:40;;;;;;;;;;;;;;;12.18;90.20;102258.78;4990711;28;20383;-34
2022/05/28 06:13:07;;;;;;;;;;;;;;;12.16;89.78;102257.38;4989991;28;19932;-31
2022/05/28 06:15:35;;;;;;;;;;;;;;;12.15;90.05;102255.69;4990926;28;19922;-35
2022/05/28 06:18:04;;;;;;;;;;;;;;;12.20;90.82;102258.47;4984722;28;20044;-33
2022/05/28 06:20:31;;;;;;;;;;;;;;;12.27;91.38;102248.72;4985438;28;19928;-32
2022/05/28 06:22:59;;;;;;;;;;;;;;;12.29;91.17;102262.44;4987229;28;19941;-33
2022/05/28 06:25:26;;;;;;;;;;;;;;;12.31;91.59;102257.41;4985035;28;20029;-30
2022/05/28 06:27:54;;;;;;;;;;;;;;;12.45;92.56;102264.13;4982942;28;19929;-36
2022/05/28 06:30:22;;;;;;;;;;;;;;;12.72;92.22;102259.13;4982788;28;19930;-35
2022/05/28 06:32:50;;;;;;;;;;;;;;;12.97;91.22;102265.84;4984029;28;20362;-34
2022/05/28 06:35:19;;;;;;;;;;;;;;;13.10;90.21;102266.13;4985671;28;20334;-34
2022/05/28 06:37:47;;;;;;;;;;;;;;;13.18;88.25;102267.56;4128769;28;10000903;-32
2022/05/28 06:40:14;;;;;;;;;;;;;;;13.33;87.29;102264.72;5014272;28;19925;-34
2022/05/28 06:42:44;;;;;;;;;;;;;;;13.38;84.52;102264.72;5020328;28;19924;-29
2022/05/28 06:45:14;;;;;;;;;;;;;;;13.37;82.88;102265.84;5017000;28;19928;-28
2022/05/28 06:47:42;;;;;;;;;;;;;;;13.30;81.97;102262.47;5016642;28;19925;-29
2022/05/28 06:52:56;;;;;;;;;;;;;;;13.39;85.80;102262.72;5021158;28;19944;-30
2022/05/28 06:55:23;;;;;;;;;;;;;;;13.92;85.67;102255.53;5020290;28;20039;-29
2022/05/28 06:57:51;;;;;;;;;;;;;;;14.57;82.38;102266.72;5021568;28;19991;-30
2022/05/28 07:00:19;;;;;;;;;;;;;;;15.19;79.18;102268.69;5021486;28;20377;-32
2022/05/28 07:02:47;;;;;;;;;;;;;;;15.82;76.36;102265.78;5019866;28;19932;-31
2022/05/28 07:05:15;;;;;;;;;;;;;;;16.56;75.01;102267.00;5019251;28;19925;-31
2022/05/28 07:07:43;;;;;;;;;;;;;;;17.15;64.38;102265.50;5024250;28;19928;-32
2022/05/28 07:10:12;;;;;;;;;;;;;;;17.64;64.61;102269.63;5022570;28;19931;-30
2022/05/28 07:12:40;;;;;;;;;;;;;;;18.16;60.95;102269.13;5022351;28;19925;-31
2022/05/28 07:15:08;;;;;;;;;;;;;;;18.33;58.71;102268.47;5014698;28;19928;-33
2022/05/28 07:17:36;;;;;;;;;;;;;;;18.37;60.21;102268.69;5014803;28;19925;-31
2022/05/28 07:20:04;;;;;;;;;;;;;;;18.41;57.99;102264.03;5015342;28;19925;-30
2022/05/28 07:22:32;;;;;;;;;;;;;;;18.33;58.69;102274.13;5009578;28;19933;-33
2022/05/28 07:25:07;;;;;;;;;;;;;;;18.32;60.44;102277.25;5007482;28;19958;-31
2022/05/28 07:27:36;;;;;;;;;;;;;;;18.58;59.50;102272.69;5011900;28;20003;-31
2022/05/28 07:30:04;;;;;;;;;;;;;;;19.00;58.17;102277.03;5012414;28;19932;-30
2022/05/28 07:32:32;;;;;;;;;;;;;;;18.94;52.65;102278.34;5012773;28;19929;-30
2022/05/28 07:34:59;;;;;;;;;;;;;;;18.65;51.82;102278.75;5013563;28;19922;-32
2022/05/28 07:37:29;;;;;;;;;;;;;;;18.63;53.66;102286.72;5012472;28;19932;-30
2022/05/28 07:39:56;;;;;;;;;;;;;;;18.75;54.06;102277.69;5013030;28;19932;-30
2022/05/28 07:42:24;;;;;;;;;;;;;;;19.07;54.83;102280.25;5013027;28;19957;-30
2022/05/28 07:44:53;;;;;;;;;;;;;;;19.55;52.48;102277.59;5012124;28;19925;-30
2022/05/28 07:47:21;;;;;;;;;;;;;;;19.71;51.59;102272.31;5012242;28;19960;-30
2022/05/28 07:49:48;;;;;;;;;;;;;;;20.01;52.66;102283.91;5012118;28;20470;-30
2022/05/28 07:52:17;;;;;;;;;;;;;;;20.38;50.52;102293.91;5012208;28;19922;-30
2022/05/28 07:54:44;;;;;;;;;;;;;;;20.33;48.02;102294.00;5010916;28;20365;-30
2022/05/28 07:57:12;;;;;;;;;;;;;;;20.39;48.82;102284.19;5009457;28;19932;-29
2022/05/28 07:59:39;;;;;;;;;;;;;;;20.50;47.31;102289.22;5012311;28;19928;-32
2022/05/28 08:02:08;;;;;;;;;;;;;;;20.86;48.41;102299.41;5012696;28;19933;-30
2022/05/28 08:04:36;;;;;;;;;;;;;;;21.35;46.84;102295.22;5010619;28;19925;-32
2022/05/28 08:07:04;;;;;;;;;;;;;;;21.75;44.86;102294.94;5012603;28;19944;-31
2022/05/28 08:09:31;;;;;;;;;;;;;;;22.04;44.42;102288.47;5011589;28;19925;-30
2022/05/28 08:11:59;;;;;;;;;;;;;;;22.00;40.89;102289.16;5007489;28;19921;-29
2022/05/28 08:14:26;;;;;;;;;;;;;;;21.80;43.36;102283.34;5010861;28;20378;-35
2022/05/28 08:16:54;;;;;;;;;;;;;;;21.69;45.25;102299.13;5012749;28;19928;-30
2022/05/28 08:19:23;;;;;;;;;;;;;;;21.85;43.21;102291.69;5012707;28;19926;-38
2022/05/28 08:24:44;;;;;;;;;;;;;;;22.19;42.69;102297.22;4973860;28;19922;-32
2022/05/28 08:27:18;;;;;;;;;;;;;;;22.43;42.53;102305.13;5012849;28;19976;-31
2022/05/28 08:29:45;;;;;;;;;;;;;;;22.82;43.03;102292.47;5013093;28;19921;-30
2022/05/28 08:32:16;;;;;;;;;;;;;;;23.26;40.25;102284.34;5011929;28;19929;-33
2022/05/28 08:34:45;;;;;;;;;;;;;;;23.54;40.28;102290.28;5008675;28;19925;-33
2022/05/28 08:37:13;;;;;;;;;;;;;;;23.27;38.13;102295.38;5011355;28;19921;-31
2022/05/28 08:39:40;;;;;;;;;;;;;;;23.04;41.10;102285.56;5012274;28;19944;-31
2022/05/28 08:42:10;;;;;;;;;;;;;;;23.04;40.96;102294.09;5012877;28;19932;-32
2022/05/28 08:44:39;;;;;;;;;;;;;;;23.20;39.87;102291.44;5012836;28;19922;-36
2022/05/28 08:47:15;;;;;;;;;;;;;;;23.41;39.01;102294.22;5012590;28;19968;-31
2022/05/28 08:49:44;;;;;;;;;;;;;;;23.62;39.18;102290.16;5013042;28;19921;-31
2022/05/28 08:52:15;;;;;;;;;;;;;;;23.84;37.67;102288.88;5009285;28;19929;-33
2022/05/28 08:54:56;;;;;;;;;;;;;;;23.99;39.05;102296.72;5012311;28;19921;-36
2022/05/28 08:57:30;;;;;;;;;;;;;;;24.05;38.15;102300.19;5009520;28;19921;-31
2022/05/28 09:00:00;;;;;;;;;;;;;;;23.95;38.51;102295.78;5011537;28;19921;-31
2022/05/28 09:02:33;;;;;;;;;;;;;;;24.00;37.27;102295.53;5012142;28;19922;-33
2022/05/28 09:05:01;;;;;;;;;;;;;;;24.23;38.58;102301.59;5012638;28;19948;-38
2022/05/28 09:07:32;;;;;;;;;;;;;;;24.31;35.89;102300.69;5011269;28;19922;-31
2022/05/28 09:09:59;;;;;;;;;;;;;;;24.19;37.44;102306.34;5011689;28;20494;-32
2022/05/28 09:12:30;;;;;;;;;;;;;;;24.36;37.49;102299.63;5012593;28;19921;-37
2022/05/28 09:14:57;;;;;;;;;;;;;;;24.32;39.18;102296.63;5012029;28;20343;-31
2022/05/28 09:17:27;;;;;;;;;;;;;;;24.36;39.06;102300.44;5008611;28;19951;-37
2022/05/28 09:19:56;;;;;;;;;;;;;;;24.29;38.13;102305.06;5006765;28;19944;-31
2022/05/28 09:22:25;;;;;;;;;;;;;;;24.15;39.47;102299.72;5010694;28;19921;-30
2022/05/28 09:24:54;;;;;;;;;;;;;;;23.96;40.71;102300.31;5011133;28;20016;-32
2022/05/28 09:27:27;;;;;;;;;;;;;;;23.70;40.46;102306.34;5012138;28;19925;-30
2022/05/28 09:30:10;;;;;;;;;;;;;;;23.40;41.97;102306.81;5011631;28;19921;-33
2022/05/28 09:32:49;;;;;;;;;;;;;;;23.20;42.68;102306.50;5010475;28;19928;-31
2022/05/28 09:35:21;;;;;;;;;;;;;;;22.82;42.49;102311.56;5011471;28;19929;-30
2022/05/28 09:37:55;;;;;;;;;;;;;;;22.49;43.28;102314.28;5011354;28;19929;-35
2022/05/28 09:40:26;;;;;;;;;;;;;;;22.52;42.48;102305.06;5011400;28;19979;-29
2022/05/28 09:43:07;;;;;;;;;;;;;;;22.65;42.23;102316.19;5011029;28;19925;-34
2022/05/28 09:45:42;;;;;;;;;;;;;;;22.85;40.90;102308.84;5012019;28;19929;-34
2022/05/28 09:48:18;;;;;;;;;;;;;;;23.07;41.93;102312.50;5010609;28;19925;-29
2022/05/28 09:50:45;;;;;;;;;;;;;;;23.39;41.50;102311.66;5011255;28;19944;-31
2022/05/28 09:56:18;;;;;;;;;;;;;;;23.88;41.62;102311.81;4978160;28;19922;-36
2022/05/28 09:58:47;;;;;;;;;;;;;;;23.93;40.55;102317.28;4976369;28;19922;-29
2022/05/28 10:01:19;;;;;;;;;;;;;;;23.99;40.57;102318.69;4998115;28;19922;-35
2022/05/28 10:06:33;;;;;;;;;;;;;;;24.47;40.19;102312.19;5012006;28;19952;-39
2022/05/28 10:09:14;;;;;;;;;;;;;;;24.72;38.53;102307.28;5011440;28;19933;-34
2022/05/28 10:11:53;;;;;;;;;;;;;;;24.85;36.04;102306.03;5006074;28;20611;-32
2022/05/28 10:14:21;;;;;;;;;;;;;;;24.86;36.97;102301.97;5008325;28;19921;-30
2022/05/28 10:16:50;;;;;;;;;;;;;;;24.90;36.14;102307.81;5011444;28;19932;-31
2022/05/28 10:19:20;;;;;;;;;;;;;;;24.96;38.50;102309.25;5010313;28;19960;-33
2022/05/28 10:21:51;;;;;;;;;;;;;;;24.96;37.80;102312.94;5010834;28;19921;-27
2022/05/28 10:24:19;;;;;;;;;;;;;;;24.97;37.62;102311.75;5009988;28;19940;-34
2022/05/28 10:26:48;;;;;;;;;;;;;;;24.93;36.27;102309.94;5008858;28;19929;-30
2022/05/28 10:29:19;;;;;;;;;;;;;;;24.84;36.95;102303.53;5007881;28;19933;-27
2022/05/28 10:31:48;;;;;;;;;;;;;;;24.81;37.54;102301.41;5008848;28;19922;-31
2022/05/28 10:34:28;;;;;;;;;;;;;;;24.79;36.95;102300.91;5006608;28;20307;-28
2022/05/28 10:37:05;;;;;;;;;;;;;;;24.75;35.75;102295.13;5006851;28;19921;-30
2022/05/28 10:39:32;;;;;;;;;;;;;;;24.65;36.97;102298.47;5009610;28;19929;-27
2022/05/28 10:42:01;;;;;;;;;;;;;;;24.62;35.57;102299.19;5009960;28;19928;-30
2022/05/28 10:44:29;;;;;;;;;;;;;;;24.65;36.56;102299.31;5010346;28;19931;-33
2022/05/28 10:47:03;;;;;;;;;;;;;;;24.60;36.36;102301.56;5009213;28;19968;-32
2022/05/28 10:49:36;;;;;;;;;;;;;;;24.32;37.02;102288.09;5008222;28;19925;-26
2022/05/28 10:52:09;;;;;;;;;;;;;;;24.05;38.54;102291.63;5009893;28;20397;-26
2022/05/28 10:54:43;;;;;;;;;;;;;;;23.86;38.80;102291.38;5010430;28;19921;-27
2022/05/28 10:57:19;;;;;;;;;;;;;;;23.66;38.77;102291.13;5009650;28;20387;-26
2022/05/28 10:59:56;;;;;;;;;;;;;;;23.31;39.62;102298.38;5009816;28;19925;-26
2022/05/28 11:02:42;;;;;;;;;;;;;;;22.83;41.46;102299.81;5005279;28;19928;-27
2022/05/28 11:05:18;;;;;;;;;;;;;;;22.39;42.25;102300.47;5009766;28;20398;-28
2022/05/28 11:07:53;;;;;;;;;;;;;;;22.18;43.33;102297.59;5008002;28;19938;-28
2022/05/28 11:10:37;;;;;;;;;;;;;;;22.16;43.13;102297.94;5010016;28;19931;-29
2022/05/28 11:13:21;;;;;;;;;;;;;;;22.12;42.30;102302.66;5006366;28;20386;-30
2022/05/28 11:16:06;;;;;;;;;;;;;;;21.98;42.89;102299.19;5006257;28;19975;-28
2022/05/28 11:18:51;;;;;;;;;;;;;;;21.98;42.56;102302.81;5007658;28;19933;-27
2022/05/28 11:21:31;;;;;;;;;;;;;;;22.01;43.83;102289.97;5007873;28;19932;-27
2022/05/28 11:24:10;;;;;;;;;;;;;;;22.24;44.21;102293.38;5010261;28;19950;-27
2022/05/28 11:26:44;;;;;;;;;;;;;;;22.12;41.50;102291.28;5008994;28;19921;-27
2022/05/28 11:29:28;;;;;;;;;;;;;;;21.67;41.07;102286.09;5009016;28;19925;-27
2022/05/28 11:32:00;;;;;;;;;;;;;;;21.28;43.71;102284.38;5006777;28;19921;-27
2022/05/28 11:34:30;;;;;;;;;;;;;;;21.07;43.53;102291.91;5010263;28;19932;-27
2022/05/28 11:36:59;;;;;;;;;;;;;;;20.98;44.21;102283.38;5009023;28;19932;-27
2022/05/28 11:39:34;;;;;;;;;;;;;;;20.89;42.66;102296.75;5010683;28;20393;-26
2022/05/28 11:42:04;;;;;;;;;;;;;;;20.92;43.08;102286.75;5012998;28;19928;-26
2022/05/28 11:44:36;;;;;;;;;;;;;;;21.08;43.41;102285.06;5013218;28;19990;-26
2022/05/28 11:47:10;;;;;;;;;;;;;;;21.22;42.94;102296.25;5013174;28;19921;-26
2022/05/28 11:52:32;;;;;;;;;;;;;;;21.24;40.91;102291.06;5012868;28;19925;-31
2022/05/28 11:55:02;;;;;;;;;;;;;;;21.42;43.77;102287.00;5012033;28;20691;-30
2022/05/28 11:57:33;;;;;;;;;;;;;;;21.54;40.36;102290.00;5012371;28;19929;-30
2022/05/28 12:00:02;;;;;;;;;;;;;;;21.62;41.59;102289.13;5012806;28;20378;-32
2022/05/28 12:02:40;;;;;;;;;;;;;;;21.64;40.42;102292.44;5012742;28;19975;-30
2022/05/28 12:05:15;;;;;;;;;;;;;;;21.61;41.02;102284.59;5011930;28;19921;-29
2022/05/28 12:07:45;;;;;;;;;;;;;;;21.69;40.57;102288.59;5007258;28;19933;-30
2022/05/28 12:10:16;;;;;;;;;;;;;;;21.81;41.49;102288.69;5010054;28;20422;-32
2022/05/28 12:12:52;;;;;;;;;;;;;;;21.80;38.88;102278.50;5012377;28;19925;-32
2022/05/28 12:15:22;;;;;;;;;;;;;;;21.56;40.65;102290.50;5012364;28;19921;-39
2022/05/28 12:17:58;;;;;;;;;;;;;;;21.58;41.19;102288.13;5011732;28;19921;-37
2022/05/28 12:20:30;;;;;;;;;;;;;;;21.79;41.74;102279.69;5012546;28;20347;-29
2022/05/28 12:23:00;;;;;;;;;;;;;;;22.09;41.58;102291.94;5011338;28;19921;-30
2022/05/28 12:25:32;;;;;;;;;;;;;;;22.19;40.44;102280.16;5011491;28;20287;-30
2022/05/28 12:28:09;;;;;;;;;;;;;;;22.23;40.40;102280.31;5012246;28;19973;-32
2022/05/28 12:30:48;;;;;;;;;;;;;;;22.26;39.87;102280.47;5012378;28;20395;-30
2022/05/28 12:33:24;;;;;;;;;;;;;;;22.37;39.77;102265.84;5011802;28;19929;-31
2022/05/28 12:35:55;;;;;;;;;;;;;;;22.38;39.50;102276.06;5012076;28;19932;-33
2022/05/28 12:38:31;;;;;;;;;;;;;;;22.36;39.68;102273.56;5011497;28;19928;-33
2022/05/28 12:41:00;;;;;;;;;;;;;;;22.43;40.73;102275.84;5011756;28;19928;-39
2022/05/28 12:43:30;;;;;;;;;;;;;;;22.37;39.37;102274.41;5012199;28;20287;-36
2022/05/28 12:45:58;;;;;;;;;;;;;;;22.16;40.03;102269.50;5011332;28;19921;-32
2022/05/28 12:48:30;;;;;;;;;;;;;;;22.10;40.99;102258.66;5011745;28;19925;-32
2022/05/28 12:51:16;;;;;;;;;;;;;;;21.89;41.05;102270.78;5011435;28;20015;-32
2022/05/28 12:53:53;;;;;;;;;;;;;;;21.90;41.11;102271.63;5011563;28;19921;-30
2022/05/28 12:56:23;;;;;;;;;;;;;;;21.85;41.96;102266.97;5011614;28;19922;-32
2022/05/28 12:58:51;;;;;;;;;;;;;;;21.92;43.21;102272.13;5011438;28;19921;-30
2022/05/28 13:01:21;;;;;;;;;;;;;;;21.96;41.49;102261.75;5010537;28;19928;-30
2022/05/28 13:03:51;;;;;;;;;;;;;;;22.13;44.04;102270.19;5012027;28;19925;-34